sensor_id;sensor_type;location;lat;lon;timestamp;P1;durP1;ratioP1;P2;durP2;ratioP2
11646;SDS011;5880;52.342;9.662;2023-12-20T00:00:25;6.40;;;5.03;;
11646;SDS011;5880;52.342;9.662;2023-12-20T00:02:51;6.03;;;5.00;;
11646;SDS011;5880;52.342;9.662;2023-12-20T00:05:16;6.03;;;4.60;;
11646;SDS011;5880;52.342;9.662;2023-12-20T00:07:42;4.83;;;3.93;;
11646;SDS011;5880;52.342;9.662;2023-12-20T00:10:08;7.53;;;4.50;;
11646;SDS011;5880;52.342;9.662;2023-12-20T00:12:34;8.00;;;4.23;;
11646;SDS011;5880;52.342;9.662;2023-12-20T00:14:59;8.13;;;4.13;;
11646;SDS011;5880;52.342;9.662;2023-12-20T00:17:25;6.03;;;4.23;;
11646;SDS011;5880;52.342;9.662;2023-12-20T00:19:51;5.90;;;4.20;;
11646;SDS011;5880;52.342;9.662;2023-12-20T00:22:16;5.67;;;4.03;;
11646;SDS011;5880;52.342;9.662;2023-12-20T00:24:42;5.40;;;4.47;;
11646;SDS011;5880;52.342;9.662;2023-12-20T00:27:08;5.63;;;4.33;;
11646;SDS011;5880;52.342;9.662;2023-12-20T00:29:33;7.73;;;4.03;;
11646;SDS011;5880;52.342;9.662;2023-12-20T00:31:59;5.77;;;3.40;;
11646;SDS011;5880;52.342;9.662;2023-12-20T00:34:24;6.67;;;3.30;;
11646;SDS011;5880;52.342;9.662;2023-12-20T00:36:50;4.37;;;2.77;;
11646;SDS011;5880;52.342;9.662;2023-12-20T00:39:16;5.90;;;2.90;;
11646;SDS011;5880;52.342;9.662;2023-12-20T00:41:41;3.73;;;2.53;;
11646;SDS011;5880;52.342;9.662;2023-12-20T00:44:07;4.33;;;2.20;;
11646;SDS011;5880;52.342;9.662;2023-12-20T00:46:32;3.13;;;1.90;;
11646;SDS011;5880;52.342;9.662;2023-12-20T00:48:58;3.77;;;1.93;;
11646;SDS011;5880;52.342;9.662;2023-12-20T00:51:24;4.43;;;2.20;;
11646;SDS011;5880;52.342;9.662;2023-12-20T00:53:50;2.47;;;1.80;;
11646;SDS011;5880;52.342;9.662;2023-12-20T00:56:19;2.97;;;1.73;;
11646;SDS011;5880;52.342;9.662;2023-12-20T00:58:45;3.90;;;1.97;;
11646;SDS011;5880;52.342;9.662;2023-12-20T01:01:11;5.27;;;2.07;;
11646;SDS011;5880;52.342;9.662;2023-12-20T01:03:37;3.73;;;2.07;;
11646;SDS011;5880;52.342;9.662;2023-12-20T01:06:03;4.07;;;2.17;;
11646;SDS011;5880;52.342;9.662;2023-12-20T01:08:30;4.27;;;2.30;;
11646;SDS011;5880;52.342;9.662;2023-12-20T01:10:55;5.60;;;2.37;;
11646;SDS011;5880;52.342;9.662;2023-12-20T01:13:21;5.30;;;2.23;;
11646;SDS011;5880;52.342;9.662;2023-12-20T01:15:47;4.67;;;2.10;;
11646;SDS011;5880;52.342;9.662;2023-12-20T01:18:13;4.67;;;2.20;;
11646;SDS011;5880;52.342;9.662;2023-12-20T01:20:39;4.00;;;2.23;;
11646;SDS011;5880;52.342;9.662;2023-12-20T01:23:05;4.27;;;2.13;;
11646;SDS011;5880;52.342;9.662;2023-12-20T01:25:31;6.30;;;2.10;;
11646;SDS011;5880;52.342;9.662;2023-12-20T01:27:56;3.67;;;2.03;;
11646;SDS011;5880;52.342;9.662;2023-12-20T01:30:22;2.40;;;1.80;;
11646;SDS011;5880;52.342;9.662;2023-12-20T01:32:48;2.17;;;1.70;;
11646;SDS011;5880;52.342;9.662;2023-12-20T01:35:13;4.27;;;1.80;;
11646;SDS011;5880;52.342;9.662;2023-12-20T01:37:39;4.17;;;1.53;;
11646;SDS011;5880;52.342;9.662;2023-12-20T01:40:05;5.87;;;1.77;;
11646;SDS011;5880;52.342;9.662;2023-12-20T01:42:31;4.23;;;1.40;;
11646;SDS011;5880;52.342;9.662;2023-12-20T01:44:57;3.83;;;1.50;;
11646;SDS011;5880;52.342;9.662;2023-12-20T01:47:22;4.67;;;1.37;;
11646;SDS011;5880;52.342;9.662;2023-12-20T01:49:49;4.90;;;1.40;;
11646;SDS011;5880;52.342;9.662;2023-12-20T01:52:15;4.57;;;1.77;;
11646;SDS011;5880;52.342;9.662;2023-12-20T01:54:42;2.77;;;1.50;;
11646;SDS011;5880;52.342;9.662;2023-12-20T01:57:08;3.60;;;1.60;;
11646;SDS011;5880;52.342;9.662;2023-12-20T01:59:35;3.20;;;1.60;;
11646;SDS011;5880;52.342;9.662;2023-12-20T02:02:00;3.77;;;1.80;;
11646;SDS011;5880;52.342;9.662;2023-12-20T02:04:28;4.30;;;1.60;;
11646;SDS011;5880;52.342;9.662;2023-12-20T02:06:54;3.30;;;1.73;;
11646;SDS011;5880;52.342;9.662;2023-12-20T02:09:22;2.70;;;1.50;;
11646;SDS011;5880;52.342;9.662;2023-12-20T02:11:47;3.63;;;1.40;;
11646;SDS011;5880;52.342;9.662;2023-12-20T02:14:14;5.97;;;1.50;;
11646;SDS011;5880;52.342;9.662;2023-12-20T02:16:40;5.93;;;1.80;;
11646;SDS011;5880;52.342;9.662;2023-12-20T02:19:07;2.23;;;1.60;;
11646;SDS011;5880;52.342;9.662;2023-12-20T02:21:39;4.10;;;1.80;;
11646;SDS011;5880;52.342;9.662;2023-12-20T02:24:05;3.90;;;1.60;;
11646;SDS011;5880;52.342;9.662;2023-12-20T02:26:34;2.40;;;1.53;;
11646;SDS011;5880;52.342;9.662;2023-12-20T02:28:59;7.23;;;2.20;;
11646;SDS011;5880;52.342;9.662;2023-12-20T02:31:26;4.10;;;2.30;;
11646;SDS011;5880;52.342;9.662;2023-12-20T02:33:52;2.93;;;1.70;;
11646;SDS011;5880;52.342;9.662;2023-12-20T02:36:17;4.17;;;1.87;;
11646;SDS011;5880;52.342;9.662;2023-12-20T02:38:43;5.33;;;2.30;;
11646;SDS011;5880;52.342;9.662;2023-12-20T02:41:09;6.20;;;2.00;;
11646;SDS011;5880;52.342;9.662;2023-12-20T02:43:34;5.87;;;2.30;;
11646;SDS011;5880;52.342;9.662;2023-12-20T02:46:00;3.67;;;1.90;;
11646;SDS011;5880;52.342;9.662;2023-12-20T02:48:25;3.73;;;1.83;;
11646;SDS011;5880;52.342;9.662;2023-12-20T02:50:51;5.90;;;2.10;;
11646;SDS011;5880;52.342;9.662;2023-12-20T02:53:17;3.83;;;1.60;;
11646;SDS011;5880;52.342;9.662;2023-12-20T02:55:43;4.97;;;2.00;;
11646;SDS011;5880;52.342;9.662;2023-12-20T02:58:08;3.80;;;1.60;;
11646;SDS011;5880;52.342;9.662;2023-12-20T03:00:34;5.80;;;1.53;;
11646;SDS011;5880;52.342;9.662;2023-12-20T03:02:59;4.20;;;1.37;;
11646;SDS011;5880;52.342;9.662;2023-12-20T03:05:25;2.73;;;1.40;;
11646;SDS011;5880;52.342;9.662;2023-12-20T03:07:51;5.30;;;1.50;;
11646;SDS011;5880;52.342;9.662;2023-12-20T03:10:18;2.83;;;1.20;;
11646;SDS011;5880;52.342;9.662;2023-12-20T03:12:44;5.33;;;1.43;;
11646;SDS011;5880;52.342;9.662;2023-12-20T03:15:09;3.97;;;1.23;;
11646;SDS011;5880;52.342;9.662;2023-12-20T03:17:35;4.27;;;1.50;;
11646;SDS011;5880;52.342;9.662;2023-12-20T03:20:01;4.27;;;1.30;;
11646;SDS011;5880;52.342;9.662;2023-12-20T03:22:27;2.10;;;1.30;;
11646;SDS011;5880;52.342;9.662;2023-12-20T03:24:53;2.60;;;1.03;;
11646;SDS011;5880;52.342;9.662;2023-12-20T03:27:18;2.57;;;1.00;;
11646;SDS011;5880;52.342;9.662;2023-12-20T03:29:44;4.40;;;0.90;;
11646;SDS011;5880;52.342;9.662;2023-12-20T03:32:10;3.30;;;1.10;;
11646;SDS011;5880;52.342;9.662;2023-12-20T03:34:35;2.10;;;0.93;;
11646;SDS011;5880;52.342;9.662;2023-12-20T03:37:01;3.70;;;1.70;;
11646;SDS011;5880;52.342;9.662;2023-12-20T03:39:27;3.93;;;1.03;;
11646;SDS011;5880;52.342;9.662;2023-12-20T03:41:52;4.10;;;1.10;;
11646;SDS011;5880;52.342;9.662;2023-12-20T03:44:18;3.67;;;1.20;;
11646;SDS011;5880;52.342;9.662;2023-12-20T03:46:44;3.60;;;1.30;;
11646;SDS011;5880;52.342;9.662;2023-12-20T03:49:10;3.67;;;1.10;;
11646;SDS011;5880;52.342;9.662;2023-12-20T03:51:36;2.63;;;1.13;;
11646;SDS011;5880;52.342;9.662;2023-12-20T03:54:02;3.07;;;1.10;;
11646;SDS011;5880;52.342;9.662;2023-12-20T03:56:28;3.93;;;1.20;;
11646;SDS011;5880;52.342;9.662;2023-12-20T03:58:53;3.90;;;1.03;;
11646;SDS011;5880;52.342;9.662;2023-12-20T04:01:19;3.63;;;1.30;;
11646;SDS011;5880;52.342;9.662;2023-12-20T04:03:45;3.77;;;1.20;;
11646;SDS011;5880;52.342;9.662;2023-12-20T04:06:15;1.83;;;1.07;;
11646;SDS011;5880;52.342;9.662;2023-12-20T04:08:44;3.30;;;1.40;;
11646;SDS011;5880;52.342;9.662;2023-12-20T04:11:10;2.93;;;1.40;;
11646;SDS011;5880;52.342;9.662;2023-12-20T04:13:36;3.40;;;1.43;;
11646;SDS011;5880;52.342;9.662;2023-12-20T04:16:01;4.60;;;1.50;;
11646;SDS011;5880;52.342;9.662;2023-12-20T04:18:27;3.20;;;1.50;;
11646;SDS011;5880;52.342;9.662;2023-12-20T04:20:53;4.70;;;1.60;;
11646;SDS011;5880;52.342;9.662;2023-12-20T04:23:19;3.83;;;1.83;;
11646;SDS011;5880;52.342;9.662;2023-12-20T04:25:44;2.87;;;1.50;;
11646;SDS011;5880;52.342;9.662;2023-12-20T04:28:10;5.23;;;1.80;;
11646;SDS011;5880;52.342;9.662;2023-12-20T04:30:36;6.00;;;2.07;;
11646;SDS011;5880;52.342;9.662;2023-12-20T04:33:01;4.70;;;1.90;;
11646;SDS011;5880;52.342;9.662;2023-12-20T04:35:27;5.23;;;2.07;;
11646;SDS011;5880;52.342;9.662;2023-12-20T04:37:53;6.37;;;2.00;;
11646;SDS011;5880;52.342;9.662;2023-12-20T04:40:18;4.60;;;2.00;;
11646;SDS011;5880;52.342;9.662;2023-12-20T04:42:45;3.97;;;1.90;;
11646;SDS011;5880;52.342;9.662;2023-12-20T04:45:10;5.47;;;2.10;;
11646;SDS011;5880;52.342;9.662;2023-12-20T04:47:38;3.57;;;1.60;;
11646;SDS011;5880;52.342;9.662;2023-12-20T04:50:04;6.47;;;1.80;;
11646;SDS011;5880;52.342;9.662;2023-12-20T04:52:30;4.40;;;1.70;;
11646;SDS011;5880;52.342;9.662;2023-12-20T04:54:56;5.27;;;2.23;;
11646;SDS011;5880;52.342;9.662;2023-12-20T04:57:22;4.07;;;1.67;;
11646;SDS011;5880;52.342;9.662;2023-12-20T04:59:47;7.53;;;2.20;;
11646;SDS011;5880;52.342;9.662;2023-12-20T05:02:13;7.50;;;1.93;;
11646;SDS011;5880;52.342;9.662;2023-12-20T05:04:39;3.77;;;1.80;;
11646;SDS011;5880;52.342;9.662;2023-12-20T05:07:04;6.50;;;1.93;;
11646;SDS011;5880;52.342;9.662;2023-12-20T05:09:30;6.27;;;1.80;;
11646;SDS011;5880;52.342;9.662;2023-12-20T05:11:56;5.33;;;2.00;;
11646;SDS011;5880;52.342;9.662;2023-12-20T05:14:21;4.57;;;1.90;;
11646;SDS011;5880;52.342;9.662;2023-12-20T05:16:47;4.07;;;1.77;;
11646;SDS011;5880;52.342;9.662;2023-12-20T05:19:13;7.47;;;2.63;;
11646;SDS011;5880;52.342;9.662;2023-12-20T05:21:39;5.77;;;2.30;;
11646;SDS011;5880;52.342;9.662;2023-12-20T05:24:05;6.83;;;2.20;;
11646;SDS011;5880;52.342;9.662;2023-12-20T05:26:30;6.73;;;2.30;;
11646;SDS011;5880;52.342;9.662;2023-12-20T05:28:56;6.70;;;2.57;;
11646;SDS011;5880;52.342;9.662;2023-12-20T05:31:21;6.90;;;2.20;;
11646;SDS011;5880;52.342;9.662;2023-12-20T05:33:47;7.90;;;2.40;;
11646;SDS011;5880;52.342;9.662;2023-12-20T05:36:13;7.93;;;2.43;;
11646;SDS011;5880;52.342;9.662;2023-12-20T05:38:40;6.63;;;2.40;;
11646;SDS011;5880;52.342;9.662;2023-12-20T05:41:05;5.43;;;2.23;;
11646;SDS011;5880;52.342;9.662;2023-12-20T05:43:31;6.00;;;2.13;;
11646;SDS011;5880;52.342;9.662;2023-12-20T05:45:57;3.13;;;2.10;;
11646;SDS011;5880;52.342;9.662;2023-12-20T05:48:23;4.50;;;2.10;;
11646;SDS011;5880;52.342;9.662;2023-12-20T05:50:49;6.07;;;2.20;;
11646;SDS011;5880;52.342;9.662;2023-12-20T05:53:14;4.80;;;2.17;;
11646;SDS011;5880;52.342;9.662;2023-12-20T05:55:40;5.87;;;2.60;;
11646;SDS011;5880;52.342;9.662;2023-12-20T05:58:05;7.93;;;2.67;;
11646;SDS011;5880;52.342;9.662;2023-12-20T06:00:31;5.53;;;2.50;;
11646;SDS011;5880;52.342;9.662;2023-12-20T06:02:57;4.07;;;2.27;;
11646;SDS011;5880;52.342;9.662;2023-12-20T06:05:22;5.77;;;2.20;;
11646;SDS011;5880;52.342;9.662;2023-12-20T06:07:48;6.77;;;2.50;;
11646;SDS011;5880;52.342;9.662;2023-12-20T06:10:15;4.50;;;2.37;;
11646;SDS011;5880;52.342;9.662;2023-12-20T06:12:41;7.53;;;2.20;;
11646;SDS011;5880;52.342;9.662;2023-12-20T06:15:07;6.53;;;2.43;;
11646;SDS011;5880;52.342;9.662;2023-12-20T06:17:33;3.87;;;2.23;;
11646;SDS011;5880;52.342;9.662;2023-12-20T06:20:00;6.17;;;2.77;;
11646;SDS011;5880;52.342;9.662;2023-12-20T06:22:26;6.37;;;2.63;;
11646;SDS011;5880;52.342;9.662;2023-12-20T06:24:51;8.50;;;2.57;;
11646;SDS011;5880;52.342;9.662;2023-12-20T06:27:17;5.10;;;2.80;;
11646;SDS011;5880;52.342;9.662;2023-12-20T06:29:43;5.87;;;2.80;;
11646;SDS011;5880;52.342;9.662;2023-12-20T06:32:09;7.47;;;2.87;;
11646;SDS011;5880;52.342;9.662;2023-12-20T06:34:35;4.23;;;2.37;;
11646;SDS011;5880;52.342;9.662;2023-12-20T06:37:01;3.70;;;2.17;;
11646;SDS011;5880;52.342;9.662;2023-12-20T06:39:26;8.50;;;2.60;;
11646;SDS011;5880;52.342;9.662;2023-12-20T06:41:53;5.67;;;2.90;;
11646;SDS011;5880;52.342;9.662;2023-12-20T06:44:18;7.43;;;2.77;;
11646;SDS011;5880;52.342;9.662;2023-12-20T06:46:44;8.33;;;2.63;;
11646;SDS011;5880;52.342;9.662;2023-12-20T06:49:09;5.83;;;2.47;;
11646;SDS011;5880;52.342;9.662;2023-12-20T06:51:35;6.07;;;2.20;;
11646;SDS011;5880;52.342;9.662;2023-12-20T06:54:01;8.50;;;2.53;;
11646;SDS011;5880;52.342;9.662;2023-12-20T06:56:27;5.50;;;2.30;;
11646;SDS011;5880;52.342;9.662;2023-12-20T06:58:53;4.77;;;2.10;;
11646;SDS011;5880;52.342;9.662;2023-12-20T07:01:19;5.57;;;2.77;;
11646;SDS011;5880;52.342;9.662;2023-12-20T07:03:44;6.17;;;2.50;;
11646;SDS011;5880;52.342;9.662;2023-12-20T07:06:10;6.13;;;2.50;;
11646;SDS011;5880;52.342;9.662;2023-12-20T07:08:36;5.37;;;2.20;;
11646;SDS011;5880;52.342;9.662;2023-12-20T07:11:01;7.00;;;2.40;;
11646;SDS011;5880;52.342;9.662;2023-12-20T07:13:27;5.83;;;2.60;;
11646;SDS011;5880;52.342;9.662;2023-12-20T07:15:53;8.20;;;2.77;;
11646;SDS011;5880;52.342;9.662;2023-12-20T07:18:18;9.00;;;3.23;;
11646;SDS011;5880;52.342;9.662;2023-12-20T07:20:44;7.87;;;2.50;;
11646;SDS011;5880;52.342;9.662;2023-12-20T07:23:10;4.97;;;2.10;;
11646;SDS011;5880;52.342;9.662;2023-12-20T07:25:36;4.97;;;2.13;;
11646;SDS011;5880;52.342;9.662;2023-12-20T07:28:02;7.70;;;2.87;;
11646;SDS011;5880;52.342;9.662;2023-12-20T07:30:27;9.17;;;2.93;;
11646;SDS011;5880;52.342;9.662;2023-12-20T07:32:53;6.77;;;2.17;;
11646;SDS011;5880;52.342;9.662;2023-12-20T07:35:19;10.40;;;3.00;;
11646;SDS011;5880;52.342;9.662;2023-12-20T07:37:45;6.03;;;2.20;;
11646;SDS011;5880;52.342;9.662;2023-12-20T07:40:10;6.27;;;2.43;;
11646;SDS011;5880;52.342;9.662;2023-12-20T07:42:36;6.27;;;3.00;;
11646;SDS011;5880;52.342;9.662;2023-12-20T07:45:02;7.23;;;2.23;;
11646;SDS011;5880;52.342;9.662;2023-12-20T07:47:28;9.30;;;2.70;;
11646;SDS011;5880;52.342;9.662;2023-12-20T07:49:54;5.27;;;2.23;;
11646;SDS011;5880;52.342;9.662;2023-12-20T07:52:19;4.17;;;2.10;;
11646;SDS011;5880;52.342;9.662;2023-12-20T07:54:48;4.53;;;2.13;;
11646;SDS011;5880;52.342;9.662;2023-12-20T07:57:14;5.63;;;2.27;;
11646;SDS011;5880;52.342;9.662;2023-12-20T07:59:39;9.90;;;2.73;;
11646;SDS011;5880;52.342;9.662;2023-12-20T08:02:05;10.57;;;3.47;;
11646;SDS011;5880;52.342;9.662;2023-12-20T08:04:31;4.27;;;2.60;;
11646;SDS011;5880;52.342;9.662;2023-12-20T08:06:57;8.03;;;3.23;;
11646;SDS011;5880;52.342;9.662;2023-12-20T08:09:23;8.33;;;3.77;;
11646;SDS011;5880;52.342;9.662;2023-12-20T08:11:49;13.70;;;4.03;;
11646;SDS011;5880;52.342;9.662;2023-12-20T08:14:15;6.50;;;3.23;;
11646;SDS011;5880;52.342;9.662;2023-12-20T08:16:41;6.03;;;3.03;;
11646;SDS011;5880;52.342;9.662;2023-12-20T08:19:06;7.57;;;3.10;;
11646;SDS011;5880;52.342;9.662;2023-12-20T08:21:32;8.80;;;2.97;;
11646;SDS011;5880;52.342;9.662;2023-12-20T08:23:58;7.33;;;3.00;;
11646;SDS011;5880;52.342;9.662;2023-12-20T08:26:25;9.73;;;3.30;;
11646;SDS011;5880;52.342;9.662;2023-12-20T08:28:51;13.00;;;2.70;;
11646;SDS011;5880;52.342;9.662;2023-12-20T08:31:17;9.40;;;2.77;;
11646;SDS011;5880;52.342;9.662;2023-12-20T08:33:44;7.73;;;2.80;;
11646;SDS011;5880;52.342;9.662;2023-12-20T08:36:11;10.67;;;3.47;;
11646;SDS011;5880;52.342;9.662;2023-12-20T08:38:37;8.00;;;3.20;;
11646;SDS011;5880;52.342;9.662;2023-12-20T08:41:03;9.33;;;2.93;;
11646;SDS011;5880;52.342;9.662;2023-12-20T08:43:33;6.93;;;2.87;;
11646;SDS011;5880;52.342;9.662;2023-12-20T08:46:00;5.97;;;2.70;;
11646;SDS011;5880;52.342;9.662;2023-12-20T08:48:27;8.13;;;3.00;;
11646;SDS011;5880;52.342;9.662;2023-12-20T08:50:53;7.87;;;3.30;;
11646;SDS011;5880;52.342;9.662;2023-12-20T08:53:19;6.83;;;3.03;;
11646;SDS011;5880;52.342;9.662;2023-12-20T08:55:45;7.90;;;2.87;;
11646;SDS011;5880;52.342;9.662;2023-12-20T08:58:11;7.27;;;2.50;;
11646;SDS011;5880;52.342;9.662;2023-12-20T09:00:37;5.87;;;2.97;;
11646;SDS011;5880;52.342;9.662;2023-12-20T09:03:03;5.70;;;2.60;;
11646;SDS011;5880;52.342;9.662;2023-12-20T09:05:29;5.73;;;3.07;;
11646;SDS011;5880;52.342;9.662;2023-12-20T09:07:55;7.57;;;3.20;;
11646;SDS011;5880;52.342;9.662;2023-12-20T09:10:21;7.60;;;2.97;;
11646;SDS011;5880;52.342;9.662;2023-12-20T09:12:50;8.00;;;3.50;;
11646;SDS011;5880;52.342;9.662;2023-12-20T09:15:21;5.43;;;3.17;;
11646;SDS011;5880;52.342;9.662;2023-12-20T09:17:48;7.37;;;3.20;;
11646;SDS011;5880;52.342;9.662;2023-12-20T09:20:14;6.73;;;2.90;;
11646;SDS011;5880;52.342;9.662;2023-12-20T09:22:40;7.53;;;3.17;;
11646;SDS011;5880;52.342;9.662;2023-12-20T09:25:07;6.43;;;3.20;;
11646;SDS011;5880;52.342;9.662;2023-12-20T09:27:35;10.13;;;3.83;;
11646;SDS011;5880;52.342;9.662;2023-12-20T09:30:00;9.43;;;3.50;;
11646;SDS011;5880;52.342;9.662;2023-12-20T09:32:26;11.03;;;3.43;;
11646;SDS011;5880;52.342;9.662;2023-12-20T09:34:52;7.73;;;3.50;;
11646;SDS011;5880;52.342;9.662;2023-12-20T09:37:17;7.87;;;3.20;;
11646;SDS011;5880;52.342;9.662;2023-12-20T09:39:43;8.57;;;3.40;;
11646;SDS011;5880;52.342;9.662;2023-12-20T09:42:08;7.70;;;3.00;;
11646;SDS011;5880;52.342;9.662;2023-12-20T09:44:42;5.20;;;3.10;;
11646;SDS011;5880;52.342;9.662;2023-12-20T09:47:09;6.37;;;2.90;;
11646;SDS011;5880;52.342;9.662;2023-12-20T09:49:35;8.77;;;2.97;;
11646;SDS011;5880;52.342;9.662;2023-12-20T09:52:02;6.93;;;2.80;;
11646;SDS011;5880;52.342;9.662;2023-12-20T09:54:32;6.23;;;2.70;;
11646;SDS011;5880;52.342;9.662;2023-12-20T09:56:58;7.30;;;3.00;;
11646;SDS011;5880;52.342;9.662;2023-12-20T09:59:24;6.07;;;2.80;;
11646;SDS011;5880;52.342;9.662;2023-12-20T10:01:49;7.67;;;2.77;;
11646;SDS011;5880;52.342;9.662;2023-12-20T10:04:20;5.53;;;2.67;;
11646;SDS011;5880;52.342;9.662;2023-12-20T10:06:46;7.93;;;2.77;;
11646;SDS011;5880;52.342;9.662;2023-12-20T10:09:12;8.40;;;2.77;;
11646;SDS011;5880;52.342;9.662;2023-12-20T10:11:38;8.13;;;2.60;;
11646;SDS011;5880;52.342;9.662;2023-12-20T10:14:05;6.47;;;2.70;;
11646;SDS011;5880;52.342;9.662;2023-12-20T10:16:32;6.80;;;2.97;;
11646;SDS011;5880;52.342;9.662;2023-12-20T10:18:59;9.83;;;2.87;;
11646;SDS011;5880;52.342;9.662;2023-12-20T10:21:29;7.67;;;3.10;;
11646;SDS011;5880;52.342;9.662;2023-12-20T10:23:56;8.73;;;2.73;;
11646;SDS011;5880;52.342;9.662;2023-12-20T10:26:25;6.97;;;2.80;;
11646;SDS011;5880;52.342;9.662;2023-12-20T10:28:55;9.90;;;3.37;;
11646;SDS011;5880;52.342;9.662;2023-12-20T10:31:26;6.93;;;3.10;;
11646;SDS011;5880;52.342;9.662;2023-12-20T10:33:59;7.67;;;2.80;;
11646;SDS011;5880;52.342;9.662;2023-12-20T10:36:31;6.73;;;2.70;;
11646;SDS011;5880;52.342;9.662;2023-12-20T10:38:58;7.63;;;3.10;;
11646;SDS011;5880;52.342;9.662;2023-12-20T10:41:28;6.47;;;2.73;;
11646;SDS011;5880;52.342;9.662;2023-12-20T10:44:01;6.73;;;2.73;;
11646;SDS011;5880;52.342;9.662;2023-12-20T10:46:30;5.97;;;2.87;;
11646;SDS011;5880;52.342;9.662;2023-12-20T10:48:57;5.10;;;2.60;;
11646;SDS011;5880;52.342;9.662;2023-12-20T10:51:23;5.10;;;2.50;;
11646;SDS011;5880;52.342;9.662;2023-12-20T10:53:55;5.80;;;3.10;;
11646;SDS011;5880;52.342;9.662;2023-12-20T10:56:21;6.83;;;2.90;;
11646;SDS011;5880;52.342;9.662;2023-12-20T10:58:51;7.13;;;2.70;;
11646;SDS011;5880;52.342;9.662;2023-12-20T11:01:17;8.10;;;2.90;;
11646;SDS011;5880;52.342;9.662;2023-12-20T11:03:48;6.93;;;2.60;;
11646;SDS011;5880;52.342;9.662;2023-12-20T11:09:14;4.07;;;2.63;;
11646;SDS011;5880;52.342;9.662;2023-12-20T11:14:35;5.50;;;2.20;;
11646;SDS011;5880;52.342;9.662;2023-12-20T11:17:12;6.63;;;2.53;;
11646;SDS011;5880;52.342;9.662;2023-12-20T11:22:19;5.07;;;2.60;;
11646;SDS011;5880;52.342;9.662;2023-12-20T11:24:46;5.90;;;2.43;;
11646;SDS011;5880;52.342;9.662;2023-12-20T11:27:13;5.80;;;2.57;;
11646;SDS011;5880;52.342;9.662;2023-12-20T11:29:39;4.27;;;2.03;;
11646;SDS011;5880;52.342;9.662;2023-12-20T11:34:59;4.90;;;2.40;;
11646;SDS011;5880;52.342;9.662;2023-12-20T11:37:41;4.23;;;2.20;;
11646;SDS011;5880;52.342;9.662;2023-12-20T11:40:08;5.33;;;2.47;;
11646;SDS011;5880;52.342;9.662;2023-12-20T11:42:40;5.00;;;2.20;;
11646;SDS011;5880;52.342;9.662;2023-12-20T11:45:10;4.20;;;2.20;;
11646;SDS011;5880;52.342;9.662;2023-12-20T11:47:40;5.03;;;2.37;;
11646;SDS011;5880;52.342;9.662;2023-12-20T11:50:10;3.97;;;2.00;;
11646;SDS011;5880;52.342;9.662;2023-12-20T11:52:36;2.47;;;1.20;;
11646;SDS011;5880;52.342;9.662;2023-12-20T11:55:02;2.50;;;1.10;;
11646;SDS011;5880;52.342;9.662;2023-12-20T11:57:28;2.23;;;0.90;;
11646;SDS011;5880;52.342;9.662;2023-12-20T11:59:55;0.80;;;0.70;;
11646;SDS011;5880;52.342;9.662;2023-12-20T12:02:21;1.37;;;0.90;;
11646;SDS011;5880;52.342;9.662;2023-12-20T12:04:48;1.97;;;0.80;;
11646;SDS011;5880;52.342;9.662;2023-12-20T12:07:15;1.63;;;0.60;;
11646;SDS011;5880;52.342;9.662;2023-12-20T12:09:42;1.90;;;0.60;;
11646;SDS011;5880;52.342;9.662;2023-12-20T12:12:08;1.03;;;0.60;;
11646;SDS011;5880;52.342;9.662;2023-12-20T12:14:37;2.37;;;0.77;;
11646;SDS011;5880;52.342;9.662;2023-12-20T12:17:03;2.30;;;0.60;;
11646;SDS011;5880;52.342;9.662;2023-12-20T12:19:29;1.07;;;0.57;;
11646;SDS011;5880;52.342;9.662;2023-12-20T12:22:10;1.07;;;0.60;;
11646;SDS011;5880;52.342;9.662;2023-12-20T12:24:41;1.20;;;0.43;;
11646;SDS011;5880;52.342;9.662;2023-12-20T12:27:09;1.57;;;0.67;;
11646;SDS011;5880;52.342;9.662;2023-12-20T12:29:36;1.67;;;0.83;;
11646;SDS011;5880;52.342;9.662;2023-12-20T12:32:09;2.50;;;0.80;;
11646;SDS011;5880;52.342;9.662;2023-12-20T12:34:35;2.27;;;0.63;;
11646;SDS011;5880;52.342;9.662;2023-12-20T12:37:01;1.33;;;0.50;;
11646;SDS011;5880;52.342;9.662;2023-12-20T12:39:29;1.67;;;0.50;;
11646;SDS011;5880;52.342;9.662;2023-12-20T12:41:55;1.93;;;0.80;;
11646;SDS011;5880;52.342;9.662;2023-12-20T12:44:22;2.00;;;0.60;;
11646;SDS011;5880;52.342;9.662;2023-12-20T12:46:51;0.87;;;0.40;;
11646;SDS011;5880;52.342;9.662;2023-12-20T12:49:18;3.53;;;0.60;;
11646;SDS011;5880;52.342;9.662;2023-12-20T12:51:46;1.23;;;0.50;;
11646;SDS011;5880;52.342;9.662;2023-12-20T12:54:12;2.10;;;0.73;;
11646;SDS011;5880;52.342;9.662;2023-12-20T12:56:38;2.97;;;0.87;;
11646;SDS011;5880;52.342;9.662;2023-12-20T12:59:04;1.93;;;0.67;;
11646;SDS011;5880;52.342;9.662;2023-12-20T13:01:30;1.50;;;0.70;;
11646;SDS011;5880;52.342;9.662;2023-12-20T13:03:56;2.40;;;0.60;;
11646;SDS011;5880;52.342;9.662;2023-12-20T13:06:22;1.23;;;0.70;;
11646;SDS011;5880;52.342;9.662;2023-12-20T13:08:48;1.67;;;0.70;;
11646;SDS011;5880;52.342;9.662;2023-12-20T13:11:14;3.13;;;0.70;;
11646;SDS011;5880;52.342;9.662;2023-12-20T13:13:40;2.23;;;0.80;;
11646;SDS011;5880;52.342;9.662;2023-12-20T13:16:06;1.17;;;0.53;;
11646;SDS011;5880;52.342;9.662;2023-12-20T13:18:32;2.63;;;1.10;;
11646;SDS011;5880;52.342;9.662;2023-12-20T13:20:58;2.80;;;0.70;;
11646;SDS011;5880;52.342;9.662;2023-12-20T13:23:24;2.43;;;0.77;;
11646;SDS011;5880;52.342;9.662;2023-12-20T13:25:49;1.63;;;0.80;;
11646;SDS011;5880;52.342;9.662;2023-12-20T13:28:15;1.77;;;0.77;;
11646;SDS011;5880;52.342;9.662;2023-12-20T13:30:41;1.07;;;0.60;;
11646;SDS011;5880;52.342;9.662;2023-12-20T13:33:06;1.03;;;0.50;;
11646;SDS011;5880;52.342;9.662;2023-12-20T13:35:33;2.00;;;0.70;;
11646;SDS011;5880;52.342;9.662;2023-12-20T13:37:59;2.20;;;0.80;;
11646;SDS011;5880;52.342;9.662;2023-12-20T13:40:25;1.47;;;0.70;;
11646;SDS011;5880;52.342;9.662;2023-12-20T13:42:51;1.17;;;0.80;;
11646;SDS011;5880;52.342;9.662;2023-12-20T13:45:17;1.87;;;0.73;;
11646;SDS011;5880;52.342;9.662;2023-12-20T13:47:43;2.10;;;0.80;;
11646;SDS011;5880;52.342;9.662;2023-12-20T13:50:09;2.97;;;0.90;;
11646;SDS011;5880;52.342;9.662;2023-12-20T13:52:35;1.90;;;0.97;;
11646;SDS011;5880;52.342;9.662;2023-12-20T13:55:00;3.17;;;1.30;;
11646;SDS011;5880;52.342;9.662;2023-12-20T13:57:27;2.83;;;1.00;;
11646;SDS011;5880;52.342;9.662;2023-12-20T13:59:54;2.13;;;0.90;;
11646;SDS011;5880;52.342;9.662;2023-12-20T14:02:22;2.50;;;0.90;;
11646;SDS011;5880;52.342;9.662;2023-12-20T14:04:48;2.97;;;1.30;;
11646;SDS011;5880;52.342;9.662;2023-12-20T14:07:14;1.87;;;1.00;;
11646;SDS011;5880;52.342;9.662;2023-12-20T14:09:40;2.87;;;1.00;;
11646;SDS011;5880;52.342;9.662;2023-12-20T14:12:10;1.80;;;0.87;;
11646;SDS011;5880;52.342;9.662;2023-12-20T14:14:36;1.63;;;0.90;;
11646;SDS011;5880;52.342;9.662;2023-12-20T14:17:02;3.50;;;1.23;;
11646;SDS011;5880;52.342;9.662;2023-12-20T14:19:29;3.60;;;1.20;;
11646;SDS011;5880;52.342;9.662;2023-12-20T14:21:54;2.77;;;1.10;;
11646;SDS011;5880;52.342;9.662;2023-12-20T14:24:20;2.37;;;1.00;;
11646;SDS011;5880;52.342;9.662;2023-12-20T14:26:46;3.03;;;1.10;;
11646;SDS011;5880;52.342;9.662;2023-12-20T14:29:11;3.20;;;1.10;;
11646;SDS011;5880;52.342;9.662;2023-12-20T14:31:37;2.87;;;1.00;;
11646;SDS011;5880;52.342;9.662;2023-12-20T14:34:03;2.73;;;0.93;;
11646;SDS011;5880;52.342;9.662;2023-12-20T14:36:29;4.57;;;1.10;;
11646;SDS011;5880;52.342;9.662;2023-12-20T14:38:58;1.53;;;0.93;;
11646;SDS011;5880;52.342;9.662;2023-12-20T14:41:24;3.80;;;1.10;;
11646;SDS011;5880;52.342;9.662;2023-12-20T14:43:53;5.37;;;1.10;;
11646;SDS011;5880;52.342;9.662;2023-12-20T14:46:18;3.87;;;1.00;;
11646;SDS011;5880;52.342;9.662;2023-12-20T14:48:44;2.97;;;1.00;;
11646;SDS011;5880;52.342;9.662;2023-12-20T14:51:10;5.33;;;1.20;;
11646;SDS011;5880;52.342;9.662;2023-12-20T14:53:36;4.17;;;1.23;;
11646;SDS011;5880;52.342;9.662;2023-12-20T14:56:03;3.57;;;1.03;;
11646;SDS011;5880;52.342;9.662;2023-12-20T14:58:30;1.93;;;1.07;;
11646;SDS011;5880;52.342;9.662;2023-12-20T15:00:57;3.00;;;1.10;;
11646;SDS011;5880;52.342;9.662;2023-12-20T15:03:23;2.33;;;1.10;;
11646;SDS011;5880;52.342;9.662;2023-12-20T15:05:48;2.30;;;1.10;;